sensor_id;sensor_type;location;lat;lon;timestamp;temperature;humidity
12853;DHT22;6495;51.808;7.478;2023-02-11T00:01:27;6.40;99.90
12853;DHT22;6495;51.808;7.478;2023-02-11T00:03:57;6.50;99.90
12853;DHT22;6495;51.808;7.478;2023-02-11T00:06:28;6.50;99.90
12853;DHT22;6495;51.808;7.478;2023-02-11T00:08:57;6.50;99.90
12853;DHT22;6495;51.808;7.478;2023-02-11T00:11:29;6.50;99.90
12853;DHT22;6495;51.808;7.478;2023-02-11T00:14:01;6.50;99.90
12853;DHT22;6495;51.808;7.478;2023-02-11T00:16:31;6.50;99.90
12853;DHT22;6495;51.808;7.478;2023-02-11T00:19:00;6.50;99.90
12853;DHT22;6495;51.808;7.478;2023-02-11T00:21:29;6.50;99.90
12853;DHT22;6495;51.808;7.478;2023-02-11T00:23:58;6.50;99.90
12853;DHT22;6495;51.808;7.478;2023-02-11T00:26:29;6.50;99.90
12853;DHT22;6495;51.808;7.478;2023-02-11T00:29:01;6.50;99.90
12853;DHT22;6495;51.808;7.478;2023-02-11T00:31:31;6.50;99.90
12853;DHT22;6495;51.808;7.478;2023-02-11T00:34:00;6.50;99.90
12853;DHT22;6495;51.808;7.478;2023-02-11T00:36:29;6.50;99.90
12853;DHT22;6495;51.808;7.478;2023-02-11T00:38:58;6.50;99.90
12853;DHT22;6495;51.808;7.478;2023-02-11T00:41:27;6.50;99.90
12853;DHT22;6495;51.808;7.478;2023-02-11T00:43:58;6.50;99.90
12853;DHT22;6495;51.808;7.478;2023-02-11T00:46:28;6.50;99.90
12853;DHT22;6495;51.808;7.478;2023-02-11T00:48:56;6.50;99.90
12853;DHT22;6495;51.808;7.478;2023-02-11T00:51:25;6.50;99.90
12853;DHT22;6495;51.808;7.478;2023-02-11T00:53:55;6.50;99.90
12853;DHT22;6495;51.808;7.478;2023-02-11T00:56:23;6.50;99.90
12853;DHT22;6495;51.808;7.478;2023-02-11T00:58:51;6.50;99.90
12853;DHT22;6495;51.808;7.478;2023-02-11T01:01:19;6.50;99.90
12853;DHT22;6495;51.808;7.478;2023-02-11T01:03:49;6.50;99.90
12853;DHT22;6495;51.808;7.478;2023-02-11T01:06:18;6.50;99.90
12853;DHT22;6495;51.808;7.478;2023-02-11T01:08:46;6.50;99.90
12853;DHT22;6495;51.808;7.478;2023-02-11T01:11:16;6.50;99.90
12853;DHT22;6495;51.808;7.478;2023-02-11T01:13:47;6.50;99.90
12853;DHT22;6495;51.808;7.478;2023-02-11T01:16:17;6.50;99.90
12853;DHT22;6495;51.808;7.478;2023-02-11T01:18:46;6.50;99.90
12853;DHT22;6495;51.808;7.478;2023-02-11T01:21:18;6.50;99.90
12853;DHT22;6495;51.808;7.478;2023-02-11T01:23:46;6.50;99.90
12853;DHT22;6495;51.808;7.478;2023-02-11T01:26:14;6.50;99.90
12853;DHT22;6495;51.808;7.478;2023-02-11T01:28:43;6.50;99.90
12853;DHT22;6495;51.808;7.478;2023-02-11T01:31:11;6.50;99.90
12853;DHT22;6495;51.808;7.478;2023-02-11T01:33:39;6.50;99.90
12853;DHT22;6495;51.808;7.478;2023-02-11T01:36:10;6.50;99.90
12853;DHT22;6495;51.808;7.478;2023-02-11T01:38:40;6.50;99.90
12853;DHT22;6495;51.808;7.478;2023-02-11T01:41:12;6.50;99.90
12853;DHT22;6495;51.808;7.478;2023-02-11T01:43:43;6.50;99.90
12853;DHT22;6495;51.808;7.478;2023-02-11T01:46:31;6.50;99.90
12853;DHT22;6495;51.808;7.478;2023-02-11T01:49:03;6.50;99.90
12853;DHT22;6495;51.808;7.478;2023-02-11T01:51:39;6.50;99.90
12853;DHT22;6495;51.808;7.478;2023-02-11T01:54:14;6.50;99.90
12853;DHT22;6495;51.808;7.478;2023-02-11T01:57:04;6.50;99.90
12853;DHT22;6495;51.808;7.478;2023-02-11T02:00:10;6.50;99.90
12853;DHT22;6495;51.808;7.478;2023-02-11T02:02:47;6.50;99.90
12853;DHT22;6495;51.808;7.478;2023-02-11T02:05:25;6.50;99.90
12853;DHT22;6495;51.808;7.478;2023-02-11T02:08:03;6.50;99.90
12853;DHT22;6495;51.808;7.478;2023-02-11T02:10:42;6.50;99.90
12853;DHT22;6495;51.808;7.478;2023-02-11T02:13:15;6.50;99.90
12853;DHT22;6495;51.808;7.478;2023-02-11T02:15:47;6.50;99.90
12853;DHT22;6495;51.808;7.478;2023-02-11T02:18:33;6.50;99.90
12853;DHT22;6495;51.808;7.478;2023-02-11T02:21:30;6.50;99.90
12853;DHT22;6495;51.808;7.478;2023-02-11T02:24:31;6.50;99.90
12853;DHT22;6495;51.808;7.478;2023-02-11T02:27:28;6.50;99.90
12853;DHT22;6495;51.808;7.478;2023-02-11T02:30:31;6.40;99.90
12853;DHT22;6495;51.808;7.478;2023-02-11T02:33:32;6.40;99.90
12853;DHT22;6495;51.808;7.478;2023-02-11T02:36:11;6.40;99.90
12853;DHT22;6495;51.808;7.478;2023-02-11T02:38:47;6.40;99.90
12853;DHT22;6495;51.808;7.478;2023-02-11T02:41:23;6.40;99.90
12853;DHT22;6495;51.808;7.478;2023-02-11T02:43:55;6.40;99.90
12853;DHT22;6495;51.808;7.478;2023-02-11T02:46:25;6.40;99.90
12853;DHT22;6495;51.808;7.478;2023-02-11T02:48:57;6.40;99.90
12853;DHT22;6495;51.808;7.478;2023-02-11T02:51:47;6.40;99.90
12853;DHT22;6495;51.808;7.478;2023-02-11T02:54:52;6.40;99.90
12853;DHT22;6495;51.808;7.478;2023-02-11T02:58:00;6.40;99.90
12853;DHT22;6495;51.808;7.478;2023-02-11T03:00:39;6.40;99.90
12853;DHT22;6495;51.808;7.478;2023-02-11T03:03:22;6.40;99.90
12853;DHT22;6495;51.808;7.478;2023-02-11T03:06:02;6.40;99.90
12853;DHT22;6495;51.808;7.478;2023-02-11T03:08:38;6.40;99.90
12853;DHT22;6495;51.808;7.478;2023-02-11T03:11:11;6.40;99.90
12853;DHT22;6495;51.808;7.478;2023-02-11T03:13:45;6.40;99.90
12853;DHT22;6495;51.808;7.478;2023-02-11T03:16:18;6.40;99.90
12853;DHT22;6495;51.808;7.478;2023-02-11T03:18:53;6.40;99.90
12853;DHT22;6495;51.808;7.478;2023-02-11T03:21:28;6.40;99.90
12853;DHT22;6495;51.808;7.478;2023-02-11T03:24:02;6.40;99.90
12853;DHT22;6495;51.808;7.478;2023-02-11T03:26:37;6.40;99.90
12853;DHT22;6495;51.808;7.478;2023-02-11T03:29:11;6.40;99.90
12853;DHT22;6495;51.808;7.478;2023-02-11T03:31:51;6.40;99.90
12853;DHT22;6495;51.808;7.478;2023-02-11T03:34:29;6.40;99.90
12853;DHT22;6495;51.808;7.478;2023-02-11T03:37:08;6.40;99.90
12853;DHT22;6495;51.808;7.478;2023-02-11T03:39:44;6.40;99.90
12853;DHT22;6495;51.808;7.478;2023-02-11T03:42:17;6.40;99.90
12853;DHT22;6495;51.808;7.478;2023-02-11T03:44:50;6.40;99.90
12853;DHT22;6495;51.808;7.478;2023-02-11T03:47:24;6.40;99.90
12853;DHT22;6495;51.808;7.478;2023-02-11T03:49:56;6.40;99.90
12853;DHT22;6495;51.808;7.478;2023-02-11T03:52:29;6.40;99.90
12853;DHT22;6495;51.808;7.478;2023-02-11T03:54:59;6.40;99.90
12853;DHT22;6495;51.808;7.478;2023-02-11T03:57:32;6.40;99.90
12853;DHT22;6495;51.808;7.478;2023-02-11T04:00:01;6.40;99.90
12853;DHT22;6495;51.808;7.478;2023-02-11T04:02:38;6.40;99.90
12853;DHT22;6495;51.808;7.478;2023-02-11T04:05:09;6.40;99.90
12853;DHT22;6495;51.808;7.478;2023-02-11T04:07:40;6.40;99.90
12853;DHT22;6495;51.808;7.478;2023-02-11T04:10:10;6.40;99.90
12853;DHT22;6495;51.808;7.478;2023-02-11T04:12:39;6.40;99.90
12853;DHT22;6495;51.808;7.478;2023-02-11T04:15:07;6.40;99.90
12853;DHT22;6495;51.808;7.478;2023-02-11T04:17:36;6.40;99.90
12853;DHT22;6495;51.808;7.478;2023-02-11T04:20:05;6.40;99.90
12853;DHT22;6495;51.808;7.478;2023-02-11T04:22:34;6.40;99.90
12853;DHT22;6495;51.808;7.478;2023-02-11T04:25:05;6.40;99.90
12853;DHT22;6495;51.808;7.478;2023-02-11T04:27:33;6.40;99.90
12853;DHT22;6495;51.808;7.478;2023-02-11T04:30:02;6.40;99.90
12853;DHT22;6495;51.808;7.478;2023-02-11T04:32:31;6.40;99.90
12853;DHT22;6495;51.808;7.478;2023-02-11T04:34:59;6.40;99.90
12853;DHT22;6495;51.808;7.478;2023-02-11T04:37:28;6.40;99.90
12853;DHT22;6495;51.808;7.478;2023-02-11T04:39:56;6.40;99.90
12853;DHT22;6495;51.808;7.478;2023-02-11T04:42:26;6.40;99.90
12853;DHT22;6495;51.808;7.478;2023-02-11T04:44:54;6.40;99.90
12853;DHT22;6495;51.808;7.478;2023-02-11T04:47:22;6.40;99.90
12853;DHT22;6495;51.808;7.478;2023-02-11T04:49:51;6.40;99.90
12853;DHT22;6495;51.808;7.478;2023-02-11T04:52:19;6.40;99.90
12853;DHT22;6495;51.808;7.478;2023-02-11T07:06:30;6.20;99.90
12853;DHT22;6495;51.808;7.478;2023-02-11T07:08:58;6.20;99.90
12853;DHT22;6495;51.808;7.478;2023-02-11T07:11:28;6.20;99.90
12853;DHT22;6495;51.808;7.478;2023-02-11T07:14:01;6.20;99.90
12853;DHT22;6495;51.808;7.478;2023-02-11T07:16:31;6.20;99.90
12853;DHT22;6495;51.808;7.478;2023-02-11T07:19:00;6.20;99.90
12853;DHT22;6495;51.808;7.478;2023-02-11T07:21:28;6.20;99.90
12853;DHT22;6495;51.808;7.478;2023-02-11T07:23:58;6.20;99.90
12853;DHT22;6495;51.808;7.478;2023-02-11T07:26:26;6.20;99.90
12853;DHT22;6495;51.808;7.478;2023-02-11T07:28:54;6.20;99.90
12853;DHT22;6495;51.808;7.478;2023-02-11T07:31:24;6.20;99.90
12853;DHT22;6495;51.808;7.478;2023-02-11T07:33:55;6.20;99.90
12853;DHT22;6495;51.808;7.478;2023-02-11T07:36:26;6.20;99.90
12853;DHT22;6495;51.808;7.478;2023-02-11T07:38:58;6.20;99.90
12853;DHT22;6495;51.808;7.478;2023-02-11T07:41:27;6.30;99.90
12853;DHT22;6495;51.808;7.478;2023-02-11T07:43:55;6.30;99.90
12853;DHT22;6495;51.808;7.478;2023-02-11T07:46:25;6.30;99.90
12853;DHT22;6495;51.808;7.478;2023-02-11T07:48:54;6.30;99.90
12853;DHT22;6495;51.808;7.478;2023-02-11T07:51:24;6.30;99.90
12853;DHT22;6495;51.808;7.478;2023-02-11T07:53:54;6.30;99.90
12853;DHT22;6495;51.808;7.478;2023-02-11T07:56:26;6.30;99.90
12853;DHT22;6495;51.808;7.478;2023-02-11T07:58:58;6.30;99.90
12853;DHT22;6495;51.808;7.478;2023-02-11T08:01:28;6.30;99.90
12853;DHT22;6495;51.808;7.478;2023-02-11T08:03:58;6.30;99.90
12853;DHT22;6495;51.808;7.478;2023-02-11T08:06:29;6.30;99.90
12853;DHT22;6495;51.808;7.478;2023-02-11T08:09:03;6.30;99.90
12853;DHT22;6495;51.808;7.478;2023-02-11T08:11:33;6.30;99.90
12853;DHT22;6495;51.808;7.478;2023-02-11T08:14:01;6.30;99.90
12853;DHT22;6495;51.808;7.478;2023-02-11T08:16:31;6.30;99.90
12853;DHT22;6495;51.808;7.478;2023-02-11T08:19:02;6.30;99.90
12853;DHT22;6495;51.808;7.478;2023-02-11T08:21:38;6.30;99.90
12853;DHT22;6495;51.808;7.478;2023-02-11T08:24:09;6.30;99.90
12853;DHT22;6495;51.808;7.478;2023-02-11T08:26:38;6.30;99.90
12853;DHT22;6495;51.808;7.478;2023-02-11T08:29:09;6.40;99.90
12853;DHT22;6495;51.808;7.478;2023-02-11T08:31:41;6.30;99.90
12853;DHT22;6495;51.808;7.478;2023-02-11T08:34:16;6.30;99.90
12853;DHT22;6495;51.808;7.478;2023-02-11T08:36:46;6.40;99.90
12853;DHT22;6495;51.808;7.478;2023-02-11T08:39:16;6.40;99.90
12853;DHT22;6495;51.808;7.478;2023-02-11T08:41:50;6.40;99.90
12853;DHT22;6495;51.808;7.478;2023-02-11T08:44:20;6.40;99.90
12853;DHT22;6495;51.808;7.478;2023-02-11T08:46:50;6.40;99.90
12853;DHT22;6495;51.808;7.478;2023-02-11T08:49:19;6.40;99.90
12853;DHT22;6495;51.808;7.478;2023-02-11T08:51:49;6.40;99.90
12853;DHT22;6495;51.808;7.478;2023-02-11T08:54:17;6.40;99.90
12853;DHT22;6495;51.808;7.478;2023-02-11T08:56:51;6.40;99.90
12853;DHT22;6495;51.808;7.478;2023-02-11T08:59:19;6.50;99.90
12853;DHT22;6495;51.808;7.478;2023-02-11T09:01:48;6.50;99.90
12853;DHT22;6495;51.808;7.478;2023-02-11T09:04:16;6.50;99.90
12853;DHT22;6495;51.808;7.478;2023-02-11T09:06:45;6.50;99.90
12853;DHT22;6495;51.808;7.478;2023-02-11T09:09:14;6.50;99.90
12853;DHT22;6495;51.808;7.478;2023-02-11T09:11:44;6.50;99.90
12853;DHT22;6495;51.808;7.478;2023-02-11T09:14:18;6.50;99.90
12853;DHT22;6495;51.808;7.478;2023-02-11T09:16:49;6.60;99.90
12853;DHT22;6495;51.808;7.478;2023-02-11T09:19:19;6.60;99.90
12853;DHT22;6495;51.808;7.478;2023-02-11T09:21:48;6.60;99.90
12853;DHT22;6495;51.808;7.478;2023-02-11T09:24:17;6.60;99.90
12853;DHT22;6495;51.808;7.478;2023-02-11T09:26:45;6.60;99.90
12853;DHT22;6495;51.808;7.478;2023-02-11T09:29:13;6.60;99.90
12853;DHT22;6495;51.808;7.478;2023-02-11T09:31:42;6.70;99.90
12853;DHT22;6495;51.808;7.478;2023-02-11T09:34:11;6.70;99.90
12853;DHT22;6495;51.808;7.478;2023-02-11T09:36:41;6.70;99.90
12853;DHT22;6495;51.808;7.478;2023-02-11T09:39:12;6.70;99.90
12853;DHT22;6495;51.808;7.478;2023-02-11T09:42:02;6.70;99.90
12853;DHT22;6495;51.808;7.478;2023-02-11T09:44:38;6.70;99.90
12853;DHT22;6495;51.808;7.478;2023-02-11T09:47:23;6.70;99.90
12853;DHT22;6495;51.808;7.478;2023-02-11T09:49:59;6.80;99.90
12853;DHT22;6495;51.808;7.478;2023-02-11T09:52:36;6.80;99.90
12853;DHT22;6495;51.808;7.478;2023-02-11T09:55:16;6.80;99.90
12853;DHT22;6495;51.808;7.478;2023-02-11T09:57:48;6.80;99.90
12853;DHT22;6495;51.808;7.478;2023-02-11T10:00:20;6.80;99.90
12853;DHT22;6495;51.808;7.478;2023-02-11T10:06:36;6.80;99.90
12853;DHT22;6495;51.808;7.478;2023-02-11T10:09:36;6.90;99.90
12853;DHT22;6495;51.808;7.478;2023-02-11T10:12:31;6.80;99.90
12853;DHT22;6495;51.808;7.478;2023-02-11T10:15:18;6.90;99.90
12853;DHT22;6495;51.808;7.478;2023-02-11T10:18:04;6.90;99.90
12853;DHT22;6495;51.808;7.478;2023-02-11T10:20:48;6.90;99.90
12853;DHT22;6495;51.808;7.478;2023-02-11T10:23:37;6.90;99.90
12853;DHT22;6495;51.808;7.478;2023-02-11T10:26:11;6.90;99.90
12853;DHT22;6495;51.808;7.478;2023-02-11T10:28:43;6.90;99.90
12853;DHT22;6495;51.808;7.478;2023-02-11T10:31:16;6.90;99.90
12853;DHT22;6495;51.808;7.478;2023-02-11T10:33:53;6.90;99.90
12853;DHT22;6495;51.808;7.478;2023-02-11T10:36:28;7.00;99.90
12853;DHT22;6495;51.808;7.478;2023-02-11T10:39:04;7.00;99.90
12853;DHT22;6495;51.808;7.478;2023-02-11T10:41:43;7.00;99.90
12853;DHT22;6495;51.808;7.478;2023-02-11T10:44:21;7.00;99.90
12853;DHT22;6495;51.808;7.478;2023-02-11T10:46:52;7.10;99.90
12853;DHT22;6495;51.808;7.478;2023-02-11T10:49:34;7.10;99.90
12853;DHT22;6495;51.808;7.478;2023-02-11T10:52:20;7.10;99.90
12853;DHT22;6495;51.808;7.478;2023-02-11T10:54:59;7.10;99.90
12853;DHT22;6495;51.808;7.478;2023-02-11T10:57:35;7.10;99.90
12853;DHT22;6495;51.808;7.478;2023-02-11T11:00:19;7.10;99.90
12853;DHT22;6495;51.808;7.478;2023-02-11T11:02:55;7.20;99.90
12853;DHT22;6495;51.808;7.478;2023-02-11T11:05:29;7.20;99.90
12853;DHT22;6495;51.808;7.478;2023-02-11T11:08:01;7.20;99.90
12853;DHT22;6495;51.808;7.478;2023-02-11T11:10:39;7.20;99.90
12853;DHT22;6495;51.808;7.478;2023-02-11T11:13:24;7.20;99.90
12853;DHT22;6495;51.808;7.478;2023-02-11T11:16:22;7.30;99.90
12853;DHT22;6495;51.808;7.478;2023-02-11T11:18:53;7.20;99.90
12853;DHT22;6495;51.808;7.478;2023-02-11T11:21:45;7.30;99.90
12853;DHT22;6495;51.808;7.478;2023-02-11T11:24:17;7.30;99.90
12853;DHT22;6495;51.808;7.478;2023-02-11T11:26:49;7.30;99.90
12853;DHT22;6495;51.808;7.478;2023-02-11T11:29:23;7.30;99.90
12853;DHT22;6495;51.808;7.478;2023-02-11T11:31:58;7.30;99.90
12853;DHT22;6495;51.808;7.478;2023-02-11T11:34:32;7.40;99.90
12853;DHT22;6495;51.808;7.478;2023-02-11T11:37:12;7.30;99.90
12853;DHT22;6495;51.808;7.478;2023-02-11T11:39:52;7.40;99.90
12853;DHT22;6495;51.808;7.478;2023-02-11T11:42:26;7.40;99.90
12853;DHT22;6495;51.808;7.478;2023-02-11T11:44:57;7.40;99.90
12853;DHT22;6495;51.808;7.478;2023-02-11T11:47:32;7.40;99.90
12853;DHT22;6495;51.808;7.478;2023-02-11T11:50:25;7.40;99.90
12853;DHT22;6495;51.808;7.478;2023-02-11T11:52:59;7.50;99.90
12853;DHT22;6495;51.808;7.478;2023-02-11T11:55:35;7.50;99.90
12853;DHT22;6495;51.808;7.478;2023-02-11T11:58:12;7.50;99.90
12853;DHT22;6495;51.808;7.478;2023-02-11T12:00:51;7.60;99.90
12853;DHT22;6495;51.808;7.478;2023-02-11T12:03:58;7.50;99.90
12853;DHT22;6495;51.808;7.478;2023-02-11T12:06:41;7.60;99.90
12853;DHT22;6495;51.808;7.478;2023-02-11T12:09:25;7.60;99.90
12853;DHT22;6495;51.808;7.478;2023-02-11T12:12:25;7.60;99.90
12853;DHT22;6495;51.808;7.478;2023-02-11T12:15:11;7.60;99.90
12853;DHT22;6495;51.808;7.478;2023-02-11T12:18:09;7.60;99.90
12853;DHT22;6495;51.808;7.478;2023-02-11T12:21:00;7.60;99.90
12853;DHT22;6495;51.808;7.478;2023-02-11T12:24:12;7.70;99.90
12853;DHT22;6495;51.808;7.478;2023-02-11T12:26:59;7.70;99.90
12853;DHT22;6495;51.808;7.478;2023-02-11T12:29:39;7.70;99.90
12853;DHT22;6495;51.808;7.478;2023-02-11T12:32:27;7.70;99.90
12853;DHT22;6495;51.808;7.478;2023-02-11T12:35:15;7.70;99.90
12853;DHT22;6495;51.808;7.478;2023-02-11T12:38:10;7.80;99.90
12853;DHT22;6495;51.808;7.478;2023-02-11T12:40:56;7.70;99.90
12853;DHT22;6495;51.808;7.478;2023-02-11T12:43:38;7.80;99.90
12853;DHT22;6495;51.808;7.478;2023-02-11T12:46:32;7.80;99.90
12853;DHT22;6495;51.808;7.478;2023-02-11T12:49:17;7.80;99.90
12853;DHT22;6495;51.808;7.478;2023-02-11T12:52:18;7.90;99.90
12853;DHT22;6495;51.808;7.478;2023-02-11T12:54:59;7.90;99.90
12853;DHT22;6495;51.808;7.478;2023-02-11T12:57:34;7.90;99.90
12853;DHT22;6495;51.808;7.478;2023-02-11T13:00:11;7.90;99.90
12853;DHT22;6495;51.808;7.478;2023-02-11T13:02:48;8.00;99.90
12853;DHT22;6495;51.808;7.478;2023-02-11T13:05:26;8.00;99.90
12853;DHT22;6495;51.808;7.478;2023-02-11T13:08:02;8.00;99.90
12853;DHT22;6495;51.808;7.478;2023-02-11T13:10:36;8.00;99.90
12853;DHT22;6495;51.808;7.478;2023-02-11T13:13:13;8.00;99.90
12853;DHT22;6495;51.808;7.478;2023-02-11T13:15:50;8.10;99.90
12853;DHT22;6495;51.808;7.478;2023-02-11T13:18:33;8.10;99.90
12853;DHT22;6495;51.808;7.478;2023-02-11T13:21:28;8.10;99.90
12853;DHT22;6495;51.808;7.478;2023-02-11T13:24:14;8.10;99.90
12853;DHT22;6495;51.808;7.478;2023-02-11T13:26:56;8.20;99.90
12853;DHT22;6495;51.808;7.478;2023-02-11T13:29:46;8.20;99.90
12853;DHT22;6495;51.808;7.478;2023-02-11T13:33:13;8.20;99.90
12853;DHT22;6495;51.808;7.478;2023-02-11T13:35:47;8.20;99.90
12853;DHT22;6495;51.808;7.478;2023-02-11T13:38:37;8.30;99.90
12853;DHT22;6495;51.808;7.478;2023-02-11T13:41:14;8.30;99.90
12853;DHT22;6495;51.808;7.478;2023-02-11T13:43:57;8.30;99.90
12853;DHT22;6495;51.808;7.478;2023-02-11T13:46:48;8.30;99.90
12853;DHT22;6495;51.808;7.478;2023-02-11T13:49:22;8.40;99.90
12853;DHT22;6495;51.808;7.478;2023-02-11T13:51:53;8.40;99.90
12853;DHT22;6495;51.808;7.478;2023-02-11T13:54:30;8.40;99.90
12853;DHT22;6495;51.808;7.478;2023-02-11T14:06:26;8.40;99.90
12853;DHT22;6495;51.808;7.478;2023-02-11T14:09:34;8.40;99.90
12853;DHT22;6495;51.808;7.478;2023-02-11T14:12:22;8.40;99.90
12853;DHT22;6495;51.808;7.478;2023-02-11T14:15:17;8.50;99.90
12853;DHT22;6495;51.808;7.478;2023-02-11T14:17:54;8.50;99.90
12853;DHT22;6495;51.808;7.478;2023-02-11T14:20:35;8.50;99.90
12853;DHT22;6495;51.808;7.478;2023-02-11T14:23:20;8.50;99.90
12853;DHT22;6495;51.808;7.478;2023-02-11T14:26:00;8.50;99.90
12853;DHT22;6495;51.808;7.478;2023-02-11T14:28:37;8.50;99.90
12853;DHT22;6495;51.808;7.478;2023-02-11T14:31:12;8.50;99.90
12853;DHT22;6495;51.808;7.478;2023-02-11T14:34:02;8.50;99.90
12853;DHT22;6495;51.808;7.478;2023-02-11T14:37:01;8.50;99.90
12853;DHT22;6495;51.808;7.478;2023-02-11T14:39:49;8.60;99.90
12853;DHT22;6495;51.808;7.478;2023-02-11T14:42:25;8.50;99.90
12853;DHT22;6495;51.808;7.478;2023-02-11T14:44:58;8.60;99.90
12853;DHT22;6495;51.808;7.478;2023-02-11T14:47:39;8.60;99.90
12853;DHT22;6495;51.808;7.478;2023-02-11T14:50:16;8.60;99.90
12853;DHT22;6495;51.808;7.478;2023-02-11T14:52:48;8.60;99.90
12853;DHT22;6495;51.808;7.478;2023-02-11T14:55:28;8.60;99.90
12853;DHT22;6495;51.808;7.478;2023-02-11T14:58:13;8.60;99.90
12853;DHT22;6495;51.808;7.478;2023-02-11T15:00:48;8.60;99.90
12853;DHT22;6495;51.808;7.478;2023-02-11T15:03:24;8.60;99.90
12853;DHT22;6495;51.808;7.478;2023-02-11T15:05:59;8.60;99.90
12853;DHT22;6495;51.808;7.478;2023-02-11T15:08:32;8.60;99.90
12853;DHT22;6495;51.808;7.478;2023-02-11T15:11:06;8.60;99.90
12853;DHT22;6495;51.808;7.478;2023-02-11T15:13:38;8.70;99.90
12853;DHT22;6495;51.808;7.478;2023-02-11T15:16:15;8.70;99.90
12853;DHT22;6495;51.808;7.478;2023-02-11T15:18:50;8.70;99.90
12853;DHT22;6495;51.808;7.478;2023-02-11T15:21:22;8.70;99.90
12853;DHT22;6495;51.808;7.478;2023-02-11T15:24:00;8.70;99.90
12853;DHT22;6495;51.808;7.478;2023-02-11T15:26:33;8.70;99.90
12853;DHT22;6495;51.808;7.478;2023-02-11T15:29:01;8.70;99.90
12853;DHT22;6495;51.808;7.478;2023-02-11T15:31:30;8.70;99.90
12853;DHT22;6495;51.808;7.478;2023-02-11T15:34:06;8.70;99.90
12853;DHT22;6495;51.808;7.478;2023-02-11T15:36:36;8.70;99.90
12853;DHT22;6495;51.808;7.478;2023-02-11T15:39:29;8.70;99.90
12853;DHT22;6495;51.808;7.478;2023-02-11T15:42:21;8.70;99.90
12853;DHT22;6495;51.808;7.478;2023-02-11T15:45:10;8.70;99.90
12853;DHT22;6495;51.808;7.478;2023-02-11T15:47:53;8.70;99.90
12853;DHT22;6495;51.808;7.478;2023-02-11T15:50:25;8.70;99.90
12853;DHT22;6495;51.808;7.478;2023-02-11T15:52:57;8.70;99.90
12853;DHT22;6495;51.808;7.478;2023-02-11T15:55:30;8.70;99.90
12853;DHT22;6495;51.808;7.478;2023-02-11T15:58:00;8.70;99.90
12853;DHT22;6495;51.808;7.478;2023-02-11T16:00:33;8.70;99.90
12853;DHT22;6495;51.808;7.478;2023-02-11T16:03:04;8.70;99.90
12853;DHT22;6495;51.808;7.478;2023-02-11T16:05:33;8.70;99.90
12853;DHT22;6495;51.808;7.478;2023-02-11T16:08:18;8.80;99.90
12853;DHT22;6495;51.808;7.478;2023-02-11T16:10:56;8.80;99.90
12853;DHT22;6495;51.808;7.478;2023-02-11T16:13:25;8.80;99.90
12853;DHT22;6495;51.808;7.478;2023-02-11T16:15:57;8.80;99.90
12853;DHT22;6495;51.808;7.478;2023-02-11T16:18:36;8.80;99.90
12853;DHT22;6495;51.808;7.478;2023-02-11T16:21:12;8.80;99.90
12853;DHT22;6495;51.808;7.478;2023-02-11T16:23:50;8.80;99.90
12853;DHT22;6495;51.808;7.478;2023-02-11T16:26:24;8.80;99.90
12853;DHT22;6495;51.808;7.478;2023-02-11T16:29:05;8.80;99.90
12853;DHT22;6495;51.808;7.478;2023-02-11T16:31:38;8.80;99.90
12853;DHT22;6495;51.808;7.478;2023-02-11T16:34:17;8.80;99.90
12853;DHT22;6495;51.808;7.478;2023-02-11T16:36:48;8.80;99.90
12853;DHT22;6495;51.808;7.478;2023-02-11T16:39:18;8.70;99.90
12853;DHT22;6495;51.808;7.478;2023-02-11T16:41:49;8.70;99.90
12853;DHT22;6495;51.808;7.478;2023-02-11T16:44:18;8.70;99.90
12853;DHT22;6495;51.808;7.478;2023-02-11T16:46:46;8.70;99.90
12853;DHT22;6495;51.808;7.478;2023-02-11T16:49:19;8.70;99.90
12853;DHT22;6495;51.808;7.478;2023-02-11T16:51:51;8.70;99.90
12853;DHT22;6495;51.808;7.478;2023-02-11T16:54:23;8.70;99.90
12853;DHT22;6495;51.808;7.478;2023-02-11T16:56:52;8.70;99.90
12853;DHT22;6495;51.808;7.478;2023-02-11T16:59:21;8.70;99.90
12853;DHT22;6495;51.808;7.478;2023-02-11T17:01:51;8.70;99.90
12853;DHT22;6495;51.808;7.478;2023-02-11T17:04:23;8.70;99.90
12853;DHT22;6495;51.808;7.478;2023-02-11T17:06:54;8.70;99.90
12853;DHT22;6495;51.808;7.478;2023-02-11T17:09:26;8.70;99.90
12853;DHT22;6495;51.808;7.478;2023-02-11T17:11:58;8.70;99.90
12853;DHT22;6495;51.808;7.478;2023-02-11T17:14:26;8.70;99.90
12853;DHT22;6495;51.808;7.478;2023-02-11T17:16:55;8.70;99.90
12853;DHT22;6495;51.808;7.478;2023-02-11T17:19:24;8.70;99.90
12853;DHT22;6495;51.808;7.478;2023-02-11T17:21:52;8.70;99.90
12853;DHT22;6495;51.808;7.478;2023-02-11T17:24:21;8.70;99.90
12853;DHT22;6495;51.808;7.478;2023-02-11T17:26:50;8.70;99.90
12853;DHT22;6495;51.808;7.478;2023-02-11T17:29:21;8.70;99.90
12853;DHT22;6495;51.808;7.478;2023-02-11T17:31:52;8.70;99.90
12853;DHT22;6495;51.808;7.478;2023-02-11T17:34:21;8.70;99.90
12853;DHT22;6495;51.808;7.478;2023-02-11T17:36:49;8.70;99.90
12853;DHT22;6495;51.808;7.478;2023-02-11T17:39:18;8.70;99.90
12853;DHT22;6495;51.808;7.478;2023-02-11T17:41:47;8.70;99.90
12853;DHT22;6495;51.808;7.478;2023-02-11T17:44:15;8.70;99.90
12853;DHT22;6495;51.808;7.478;2023-02-11T17:46:45;8.70;99.90
12853;DHT22;6495;51.808;7.478;2023-02-11T17:49:13;8.70;99.90
12853;DHT22;6495;51.808;7.478;2023-02-11T17:51:42;8.70;99.90
12853;DHT22;6495;51.808;7.478;2023-02-11T17:54:12;8.60;99.90
12853;DHT22;6495;51.808;7.478;2023-02-11T17:56:41;8.60;99.90
12853;DHT22;6495;51.808;7.478;2023-02-11T17:59:11;8.60;99.90
12853;DHT22;6495;51.808;7.478;2023-02-11T18:01:41;8.60;99.90
12853;DHT22;6495;51.808;7.478;2023-02-11T18:04:12;8.60;99.90
12853;DHT22;6495;51.808;7.478;2023-02-11T18:06:42;8.60;99.90
12853;DHT22;6495;51.808;7.478;2023-02-11T18:09:11;8.60;99.90
12853;DHT22;6495;51.808;7.478;2023-02-11T18:11:40;8.60;99.90
12853;DHT22;6495;51.808;7.478;2023-02-11T18:14:09;8.60;99.90
12853;DHT22;6495;51.808;7.478;2023-02-11T18:16:38;8.60;99.90
12853;DHT22;6495;51.808;7.478;2023-02-11T18:19:11;8.60;99.90
12853;DHT22;6495;51.808;7.478;2023-02-11T18:21:39;8.50;99.90
12853;DHT22;6495;51.808;7.478;2023-02-11T18:24:08;8.50;99.90
12853;DHT22;6495;51.808;7.478;2023-02-11T18:26:36;8.50;99.90
12853;DHT22;6495;51.808;7.478;2023-02-11T18:29:04;8.50;99.90
12853;DHT22;6495;51.808;7.478;2023-02-11T18:31:33;8.50;99.90
12853;DHT22;6495;51.808;7.478;2023-02-11T18:34:03;8.50;99.90
12853;DHT22;6495;51.808;7.478;2023-02-11T18:36:34;8.50;99.90
12853;DHT22;6495;51.808;7.478;2023-02-11T18:39:04;8.50;99.90
12853;DHT22;6495;51.808;7.478;2023-02-11T18:41:33;8.50;99.90
12853;DHT22;6495;51.808;7.478;2023-02-11T18:44:01;8.50;99.90
12853;DHT22;6495;51.808;7.478;2023-02-11T18:46:30;8.60;99.90
12853;DHT22;6495;51.808;7.478;2023-02-11T18:48:59;8.60;99.90
12853;DHT22;6495;51.808;7.478;2023-02-11T18:51:28;8.60;99.90
12853;DHT22;6495;51.808;7.478;2023-02-11T18:54:00;8.60;99.90
12853;DHT22;6495;51.808;7.478;2023-02-11T18:56:28;8.60;99.90
12853;DHT22;6495;51.808;7.478;2023-02-11T18:58:57;8.60;99.90
12853;DHT22;6495;51.808;7.478;2023-02-11T19:01:28;8.60;99.90
12853;DHT22;6495;51.808;7.478;2023-02-11T19:03:58;8.60;99.90
12853;DHT22;6495;51.808;7.478;2023-02-11T19:06:31;8.60;99.90
12853;DHT22;6495;51.808;7.478;2023-02-11T19:09:04;8.60;99.90
12853;DHT22;6495;51.808;7.478;2023-02-11T19:11:38;8.60;99.90
12853;DHT22;6495;51.808;7.478;2023-02-11T19:14:19;8.60;99.90
12853;DHT22;6495;51.808;7.478;2023-02-11T19:16:50;8.60;99.90
12853;DHT22;6495;51.808;7.478;2023-02-11T19:19:21;8.50;99.90